sensor_id;sensor_type;location;lat;lon;timestamp;temperature;humidity
59881;DHT22;45751;51.380;10.326;2023-05-07T00:00:37;13.10;94.80
59881;DHT22;45751;51.380;10.326;2023-05-07T00:03:03;13.10;94.90
59881;DHT22;45751;51.380;10.326;2023-05-07T00:05:31;13.00;94.90
59881;DHT22;45751;51.380;10.326;2023-05-07T00:07:57;13.00;95.20
59881;DHT22;45751;51.380;10.326;2023-05-07T00:10:25;13.00;95.30
59881;DHT22;45751;51.380;10.326;2023-05-07T00:12:52;13.00;95.40
59881;DHT22;45751;51.380;10.326;2023-05-07T00:15:19;13.00;95.90
59881;DHT22;45751;51.380;10.326;2023-05-07T00:17:46;13.00;95.40
59881;DHT22;45751;51.380;10.326;2023-05-07T00:20:13;13.00;95.50
59881;DHT22;45751;51.380;10.326;2023-05-07T00:22:40;12.90;95.50
59881;DHT22;45751;51.380;10.326;2023-05-07T00:25:07;12.90;95.70
59881;DHT22;45751;51.380;10.326;2023-05-07T00:27:34;12.90;95.80
59881;DHT22;45751;51.380;10.326;2023-05-07T00:30:01;12.90;95.80
59881;DHT22;45751;51.380;10.326;2023-05-07T00:32:28;12.80;95.90
59881;DHT22;45751;51.380;10.326;2023-05-07T00:34:55;12.90;95.90
59881;DHT22;45751;51.380;10.326;2023-05-07T00:37:22;12.80;96.00
59881;DHT22;45751;51.380;10.326;2023-05-07T00:39:49;12.80;96.10
59881;DHT22;45751;51.380;10.326;2023-05-07T00:42:16;12.80;96.10
59881;DHT22;45751;51.380;10.326;2023-05-07T00:44:42;12.70;96.00
59881;DHT22;45751;51.380;10.326;2023-05-07T00:47:10;12.70;96.10
59881;DHT22;45751;51.380;10.326;2023-05-07T00:49:42;12.70;96.10
59881;DHT22;45751;51.380;10.326;2023-05-07T00:52:13;12.60;96.10
59881;DHT22;45751;51.380;10.326;2023-05-07T00:54:41;12.60;96.30
59881;DHT22;45751;51.380;10.326;2023-05-07T00:57:10;12.60;96.40
59881;DHT22;45751;51.380;10.326;2023-05-07T00:59:37;12.60;96.50
59881;DHT22;45751;51.380;10.326;2023-05-07T01:02:04;12.60;96.30
59881;DHT22;45751;51.380;10.326;2023-05-07T01:04:31;12.60;96.40
59881;DHT22;45751;51.380;10.326;2023-05-07T01:06:59;12.50;96.30
59881;DHT22;45751;51.380;10.326;2023-05-07T01:09:28;12.50;96.80
59881;DHT22;45751;51.380;10.326;2023-05-07T01:11:56;12.50;96.40
59881;DHT22;45751;51.380;10.326;2023-05-07T01:14:24;12.40;96.50
59881;DHT22;45751;51.380;10.326;2023-05-07T01:16:52;12.40;96.40
59881;DHT22;45751;51.380;10.326;2023-05-07T01:19:22;12.40;96.30
59881;DHT22;45751;51.380;10.326;2023-05-07T01:21:49;12.40;96.30
59881;DHT22;45751;51.380;10.326;2023-05-07T01:24:18;12.40;96.30
59881;DHT22;45751;51.380;10.326;2023-05-07T01:26:45;12.30;96.20
59881;DHT22;45751;51.380;10.326;2023-05-07T01:29:15;12.30;96.30
59881;DHT22;45751;51.380;10.326;2023-05-07T01:31:43;12.30;96.40
59881;DHT22;45751;51.380;10.326;2023-05-07T01:34:12;12.30;96.40
59881;DHT22;45751;51.380;10.326;2023-05-07T01:36:40;12.30;96.70
59881;DHT22;45751;51.380;10.326;2023-05-07T01:39:09;12.20;96.70
59881;DHT22;45751;51.380;10.326;2023-05-07T01:41:37;12.20;96.90
59881;DHT22;45751;51.380;10.326;2023-05-07T01:44:05;12.20;97.00
59881;DHT22;45751;51.380;10.326;2023-05-07T01:46:32;12.20;97.10
59881;DHT22;45751;51.380;10.326;2023-05-07T01:48:59;12.10;97.40
59881;DHT22;45751;51.380;10.326;2023-05-07T01:51:27;12.10;97.70
59881;DHT22;45751;51.380;10.326;2023-05-07T01:53:54;12.10;97.80
59881;DHT22;45751;51.380;10.326;2023-05-07T01:56:22;12.10;97.80
59881;DHT22;45751;51.380;10.326;2023-05-07T01:58:50;12.10;97.90
59881;DHT22;45751;51.380;10.326;2023-05-07T02:01:18;12.00;97.80
59881;DHT22;45751;51.380;10.326;2023-05-07T02:03:46;12.00;97.80
59881;DHT22;45751;51.380;10.326;2023-05-07T02:06:20;12.00;97.90
59881;DHT22;45751;51.380;10.326;2023-05-07T02:08:47;11.90;98.10
59881;DHT22;45751;51.380;10.326;2023-05-07T02:11:15;11.90;98.20
59881;DHT22;45751;51.380;10.326;2023-05-07T02:13:43;11.90;98.40
59881;DHT22;45751;51.380;10.326;2023-05-07T02:16:09;11.90;98.40
59881;DHT22;45751;51.380;10.326;2023-05-07T02:18:38;11.90;98.40
59881;DHT22;45751;51.380;10.326;2023-05-07T02:21:05;11.90;98.60
59881;DHT22;45751;51.380;10.326;2023-05-07T02:23:32;11.90;98.80
59881;DHT22;45751;51.380;10.326;2023-05-07T02:26:00;11.90;99.00
59881;DHT22;45751;51.380;10.326;2023-05-07T02:28:27;11.90;99.00
59881;DHT22;45751;51.380;10.326;2023-05-07T02:31:03;11.80;99.10
59881;DHT22;45751;51.380;10.326;2023-05-07T02:33:31;11.80;99.30
59881;DHT22;45751;51.380;10.326;2023-05-07T02:36:14;11.80;99.20
59881;DHT22;45751;51.380;10.326;2023-05-07T02:39:03;11.80;99.30
59881;DHT22;45751;51.380;10.326;2023-05-07T02:41:30;11.70;99.40
59881;DHT22;45751;51.380;10.326;2023-05-07T02:43:57;11.70;99.40
59881;DHT22;45751;51.380;10.326;2023-05-07T02:46:25;11.70;99.50
59881;DHT22;45751;51.380;10.326;2023-05-07T02:48:59;11.70;99.50
59881;DHT22;45751;51.380;10.326;2023-05-07T02:51:26;11.70;99.80
59881;DHT22;45751;51.380;10.326;2023-05-07T02:53:56;11.70;99.90
59881;DHT22;45751;51.380;10.326;2023-05-07T02:56:25;11.70;99.90
59881;DHT22;45751;51.380;10.326;2023-05-07T02:58:53;11.60;99.90
59881;DHT22;45751;51.380;10.326;2023-05-07T03:01:22;11.60;99.90
59881;DHT22;45751;51.380;10.326;2023-05-07T03:03:56;11.60;99.90
59881;DHT22;45751;51.380;10.326;2023-05-07T03:06:23;11.50;99.90
59881;DHT22;45751;51.380;10.326;2023-05-07T03:08:50;11.50;99.90
59881;DHT22;45751;51.380;10.326;2023-05-07T03:11:17;11.50;99.90
59881;DHT22;45751;51.380;10.326;2023-05-07T03:13:44;11.50;99.90
59881;DHT22;45751;51.380;10.326;2023-05-07T03:16:11;11.50;99.90
59881;DHT22;45751;51.380;10.326;2023-05-07T03:18:38;11.50;99.90
59881;DHT22;45751;51.380;10.326;2023-05-07T03:21:05;11.50;99.90
59881;DHT22;45751;51.380;10.326;2023-05-07T03:23:32;11.50;99.90
59881;DHT22;45751;51.380;10.326;2023-05-07T03:25:59;11.40;99.90
59881;DHT22;45751;51.380;10.326;2023-05-07T03:28:27;11.50;99.90
59881;DHT22;45751;51.380;10.326;2023-05-07T03:30:58;11.50;99.90
59881;DHT22;45751;51.380;10.326;2023-05-07T03:33:25;11.40;99.90
59881;DHT22;45751;51.380;10.326;2023-05-07T03:35:55;11.40;99.90
59881;DHT22;45751;51.380;10.326;2023-05-07T03:38:24;11.50;99.90
59881;DHT22;45751;51.380;10.326;2023-05-07T03:40:51;11.40;99.90
59881;DHT22;45751;51.380;10.326;2023-05-07T03:43:18;11.40;99.90
59881;DHT22;45751;51.380;10.326;2023-05-07T03:45:49;11.40;99.90
59881;DHT22;45751;51.380;10.326;2023-05-07T03:48:21;11.40;99.90
59881;DHT22;45751;51.380;10.326;2023-05-07T03:50:50;11.40;99.90
59881;DHT22;45751;51.380;10.326;2023-05-07T03:53:18;11.40;99.90
59881;DHT22;45751;51.380;10.326;2023-05-07T03:55:45;11.30;99.90
59881;DHT22;45751;51.380;10.326;2023-05-07T03:58:12;11.30;99.90
59881;DHT22;45751;51.380;10.326;2023-05-07T04:00:39;11.30;99.90
59881;DHT22;45751;51.380;10.326;2023-05-07T04:03:27;11.30;99.90
59881;DHT22;45751;51.380;10.326;2023-05-07T04:05:57;11.30;99.90
59881;DHT22;45751;51.380;10.326;2023-05-07T04:08:24;11.30;99.90
59881;DHT22;45751;51.380;10.326;2023-05-07T04:10:57;11.30;99.90
59881;DHT22;45751;51.380;10.326;2023-05-07T04:13:26;11.30;99.90
59881;DHT22;45751;51.380;10.326;2023-05-07T04:15:55;11.20;99.90
59881;DHT22;45751;51.380;10.326;2023-05-07T04:18:22;11.20;99.90
59881;DHT22;45751;51.380;10.326;2023-05-07T04:20:49;11.20;99.90
59881;DHT22;45751;51.380;10.326;2023-05-07T04:23:16;11.20;99.90
59881;DHT22;45751;51.380;10.326;2023-05-07T04:25:43;11.20;99.90
59881;DHT22;45751;51.380;10.326;2023-05-07T04:28:19;11.10;99.90
59881;DHT22;45751;51.380;10.326;2023-05-07T04:30:47;11.20;99.90
59881;DHT22;45751;51.380;10.326;2023-05-07T04:33:14;11.20;99.90
59881;DHT22;45751;51.380;10.326;2023-05-07T04:35:44;11.10;99.90
59881;DHT22;45751;51.380;10.326;2023-05-07T04:38:11;11.10;99.90
59881;DHT22;45751;51.380;10.326;2023-05-07T04:40:38;11.00;99.90
59881;DHT22;45751;51.380;10.326;2023-05-07T04:43:07;11.20;99.90
59881;DHT22;45751;51.380;10.326;2023-05-07T04:45:42;11.10;99.90
59881;DHT22;45751;51.380;10.326;2023-05-07T04:48:10;11.10;99.90
59881;DHT22;45751;51.380;10.326;2023-05-07T04:50:39;11.00;99.90
59881;DHT22;45751;51.380;10.326;2023-05-07T04:53:07;11.00;99.90
59881;DHT22;45751;51.380;10.326;2023-05-07T04:55:34;11.00;99.90
59881;DHT22;45751;51.380;10.326;2023-05-07T04:58:01;11.00;99.90
59881;DHT22;45751;51.380;10.326;2023-05-07T05:00:31;11.00;99.90
59881;DHT22;45751;51.380;10.326;2023-05-07T05:02:59;11.00;99.90
59881;DHT22;45751;51.380;10.326;2023-05-07T05:05:28;11.00;99.90
59881;DHT22;45751;51.380;10.326;2023-05-07T05:07:55;11.00;99.90
59881;DHT22;45751;51.380;10.326;2023-05-07T05:10:22;11.00;99.90
59881;DHT22;45751;51.380;10.326;2023-05-07T05:12:51;11.00;99.90
59881;DHT22;45751;51.380;10.326;2023-05-07T05:15:19;11.00;99.90
59881;DHT22;45751;51.380;10.326;2023-05-07T05:17:46;11.00;99.90
59881;DHT22;45751;51.380;10.326;2023-05-07T05:20:13;11.00;99.90
59881;DHT22;45751;51.380;10.326;2023-05-07T05:22:41;11.00;99.90
59881;DHT22;45751;51.380;10.326;2023-05-07T05:25:10;11.00;99.90
59881;DHT22;45751;51.380;10.326;2023-05-07T05:27:37;11.10;99.90
59881;DHT22;45751;51.380;10.326;2023-05-07T05:30:05;11.00;99.90
59881;DHT22;45751;51.380;10.326;2023-05-07T05:32:34;11.00;99.90
59881;DHT22;45751;51.380;10.326;2023-05-07T05:35:01;11.00;99.90
59881;DHT22;45751;51.380;10.326;2023-05-07T05:37:29;11.00;99.90
59881;DHT22;45751;51.380;10.326;2023-05-07T05:40:00;11.00;99.90
59881;DHT22;45751;51.380;10.326;2023-05-07T05:42:29;11.00;99.90
59881;DHT22;45751;51.380;10.326;2023-05-07T05:44:55;11.00;99.90
59881;DHT22;45751;51.380;10.326;2023-05-07T05:47:23;10.90;99.90
59881;DHT22;45751;51.380;10.326;2023-05-07T05:49:53;11.00;99.90
59881;DHT22;45751;51.380;10.326;2023-05-07T05:52:20;11.00;99.90
59881;DHT22;45751;51.380;10.326;2023-05-07T05:54:50;10.90;99.90
59881;DHT22;45751;51.380;10.326;2023-05-07T05:57:17;10.90;99.90
59881;DHT22;45751;51.380;10.326;2023-05-07T05:59:45;10.90;99.90
59881;DHT22;45751;51.380;10.326;2023-05-07T06:02:14;10.90;99.90
59881;DHT22;45751;51.380;10.326;2023-05-07T06:04:42;10.90;99.90
59881;DHT22;45751;51.380;10.326;2023-05-07T06:07:12;10.90;99.90
59881;DHT22;45751;51.380;10.326;2023-05-07T06:09:39;10.90;99.90
59881;DHT22;45751;51.380;10.326;2023-05-07T06:12:06;10.90;99.90
59881;DHT22;45751;51.380;10.326;2023-05-07T06:14:34;10.90;99.90
59881;DHT22;45751;51.380;10.326;2023-05-07T06:17:01;10.90;99.90
59881;DHT22;45751;51.380;10.326;2023-05-07T06:19:27;10.80;99.90
59881;DHT22;45751;51.380;10.326;2023-05-07T06:21:56;10.80;99.90
59881;DHT22;45751;51.380;10.326;2023-05-07T06:24:24;10.80;99.90
59881;DHT22;45751;51.380;10.326;2023-05-07T06:26:51;10.80;99.90
59881;DHT22;45751;51.380;10.326;2023-05-07T06:29:18;10.80;99.90
59881;DHT22;45751;51.380;10.326;2023-05-07T06:31:45;10.80;99.90
59881;DHT22;45751;51.380;10.326;2023-05-07T06:34:12;10.80;99.90
59881;DHT22;45751;51.380;10.326;2023-05-07T06:36:41;10.90;99.90
59881;DHT22;45751;51.380;10.326;2023-05-07T06:39:17;10.80;99.90
59881;DHT22;45751;51.380;10.326;2023-05-07T06:41:44;10.80;99.90
59881;DHT22;45751;51.380;10.326;2023-05-07T06:44:21;10.80;99.90
59881;DHT22;45751;51.380;10.326;2023-05-07T06:46:58;10.80;99.90
59881;DHT22;45751;51.380;10.326;2023-05-07T06:49:26;10.80;99.90
59881;DHT22;45751;51.380;10.326;2023-05-07T06:51:53;10.70;99.90
59881;DHT22;45751;51.380;10.326;2023-05-07T06:54:20;10.80;99.90
59881;DHT22;45751;51.380;10.326;2023-05-07T06:56:48;10.70;99.90
59881;DHT22;45751;51.380;10.326;2023-05-07T06:59:16;10.70;99.90
59881;DHT22;45751;51.380;10.326;2023-05-07T07:01:43;10.80;99.90
59881;DHT22;45751;51.380;10.326;2023-05-07T07:04:11;10.80;99.90
59881;DHT22;45751;51.380;10.326;2023-05-07T07:06:40;10.90;99.90
59881;DHT22;45751;51.380;10.326;2023-05-07T07:09:10;10.80;99.90
59881;DHT22;45751;51.380;10.326;2023-05-07T07:11:37;10.90;99.90
59881;DHT22;45751;51.380;10.326;2023-05-07T07:14:05;10.90;99.90
59881;DHT22;45751;51.380;10.326;2023-05-07T07:16:37;10.90;99.90
59881;DHT22;45751;51.380;10.326;2023-05-07T07:19:04;11.00;99.90
59881;DHT22;45751;51.380;10.326;2023-05-07T07:21:32;11.00;99.90
59881;DHT22;45751;51.380;10.326;2023-05-07T07:23:59;11.10;99.90
59881;DHT22;45751;51.380;10.326;2023-05-07T07:26:26;11.10;99.90
59881;DHT22;45751;51.380;10.326;2023-05-07T07:28:53;11.10;99.90
59881;DHT22;45751;51.380;10.326;2023-05-07T07:31:21;11.10;99.90
59881;DHT22;45751;51.380;10.326;2023-05-07T07:33:50;11.20;99.90
59881;DHT22;45751;51.380;10.326;2023-05-07T07:36:19;11.20;99.90
59881;DHT22;45751;51.380;10.326;2023-05-07T07:38:49;11.20;99.90
59881;DHT22;45751;51.380;10.326;2023-05-07T07:41:16;11.30;99.90
59881;DHT22;45751;51.380;10.326;2023-05-07T07:43:43;11.30;99.90
59881;DHT22;45751;51.380;10.326;2023-05-07T07:46:10;11.30;99.90
59881;DHT22;45751;51.380;10.326;2023-05-07T07:48:37;11.30;99.90
59881;DHT22;45751;51.380;10.326;2023-05-07T07:51:04;11.30;99.90
59881;DHT22;45751;51.380;10.326;2023-05-07T07:53:32;11.40;99.90
59881;DHT22;45751;51.380;10.326;2023-05-07T07:55:59;11.30;99.90
59881;DHT22;45751;51.380;10.326;2023-05-07T07:58:30;11.30;99.90
59881;DHT22;45751;51.380;10.326;2023-05-07T08:00:58;11.40;99.90
59881;DHT22;45751;51.380;10.326;2023-05-07T08:03:25;11.40;99.90
59881;DHT22;45751;51.380;10.326;2023-05-07T08:05:57;11.30;99.90
59881;DHT22;45751;51.380;10.326;2023-05-07T08:08:24;11.40;99.90
59881;DHT22;45751;51.380;10.326;2023-05-07T08:10:53;11.40;99.90
59881;DHT22;45751;51.380;10.326;2023-05-07T08:13:27;11.40;99.90
59881;DHT22;45751;51.380;10.326;2023-05-07T08:15:54;11.40;99.90
59881;DHT22;45751;51.380;10.326;2023-05-07T08:18:22;11.50;99.90
59881;DHT22;45751;51.380;10.326;2023-05-07T08:20:52;11.50;99.90
59881;DHT22;45751;51.380;10.326;2023-05-07T08:23:22;11.50;99.90
59881;DHT22;45751;51.380;10.326;2023-05-07T08:25:49;11.50;99.90
59881;DHT22;45751;51.380;10.326;2023-05-07T08:28:18;11.50;99.90
59881;DHT22;45751;51.380;10.326;2023-05-07T08:30:47;11.60;99.90
59881;DHT22;45751;51.380;10.326;2023-05-07T08:33:14;11.60;99.90
59881;DHT22;45751;51.380;10.326;2023-05-07T08:35:41;11.60;99.90
59881;DHT22;45751;51.380;10.326;2023-05-07T08:38:10;11.60;99.90
59881;DHT22;45751;51.380;10.326;2023-05-07T08:40:38;11.60;99.90
59881;DHT22;45751;51.380;10.326;2023-05-07T08:43:14;11.60;99.90
59881;DHT22;45751;51.380;10.326;2023-05-07T08:45:43;11.60;99.90
59881;DHT22;45751;51.380;10.326;2023-05-07T08:48:17;11.60;99.90
59881;DHT22;45751;51.380;10.326;2023-05-07T08:50:53;11.60;99.90
59881;DHT22;45751;51.380;10.326;2023-05-07T08:53:21;11.60;99.90
59881;DHT22;45751;51.380;10.326;2023-05-07T08:55:49;11.60;99.90
59881;DHT22;45751;51.380;10.326;2023-05-07T08:58:17;11.60;99.90
59881;DHT22;45751;51.380;10.326;2023-05-07T09:00:44;11.60;99.90
59881;DHT22;45751;51.380;10.326;2023-05-07T09:03:12;11.60;99.90
59881;DHT22;45751;51.380;10.326;2023-05-07T09:05:44;11.60;99.90
59881;DHT22;45751;51.380;10.326;2023-05-07T09:08:15;11.60;99.90
59881;DHT22;45751;51.380;10.326;2023-05-07T09:10:44;11.60;99.90
59881;DHT22;45751;51.380;10.326;2023-05-07T09:13:11;11.60;99.90
59881;DHT22;45751;51.380;10.326;2023-05-07T09:15:41;11.50;99.90
59881;DHT22;45751;51.380;10.326;2023-05-07T09:18:08;11.60;99.90
59881;DHT22;45751;51.380;10.326;2023-05-07T09:20:39;11.60;99.90
59881;DHT22;45751;51.380;10.326;2023-05-07T09:23:08;11.60;99.90
59881;DHT22;45751;51.380;10.326;2023-05-07T09:25:36;11.60;99.90
59881;DHT22;45751;51.380;10.326;2023-05-07T09:28:13;11.60;99.90
59881;DHT22;45751;51.380;10.326;2023-05-07T09:30:41;11.50;99.90
59881;DHT22;45751;51.380;10.326;2023-05-07T09:33:10;11.70;99.90
59881;DHT22;45751;51.380;10.326;2023-05-07T09:35:41;11.70;99.90
59881;DHT22;45751;51.380;10.326;2023-05-07T09:38:13;11.70;99.90
59881;DHT22;45751;51.380;10.326;2023-05-07T09:40:40;11.80;99.90
59881;DHT22;45751;51.380;10.326;2023-05-07T09:43:13;11.80;99.90
59881;DHT22;45751;51.380;10.326;2023-05-07T09:45:47;11.90;99.90
59881;DHT22;45751;51.380;10.326;2023-05-07T09:48:20;11.90;99.90
59881;DHT22;45751;51.380;10.326;2023-05-07T09:50:51;11.90;99.90
59881;DHT22;45751;51.380;10.326;2023-05-07T09:53:25;11.90;99.90
59881;DHT22;45751;51.380;10.326;2023-05-07T09:55:54;11.90;99.90
59881;DHT22;45751;51.380;10.326;2023-05-07T09:58:21;11.90;99.90
59881;DHT22;45751;51.380;10.326;2023-05-07T10:00:50;11.90;99.90
59881;DHT22;45751;51.380;10.326;2023-05-07T10:03:19;11.90;99.90
59881;DHT22;45751;51.380;10.326;2023-05-07T10:05:56;12.00;99.90
59881;DHT22;45751;51.380;10.326;2023-05-07T10:08:25;12.00;99.90
59881;DHT22;45751;51.380;10.326;2023-05-07T10:10:57;12.00;99.90
59881;DHT22;45751;51.380;10.326;2023-05-07T10:13:26;12.00;99.90
59881;DHT22;45751;51.380;10.326;2023-05-07T10:15:57;12.00;99.90
59881;DHT22;45751;51.380;10.326;2023-05-07T10:18:28;12.00;99.90
59881;DHT22;45751;51.380;10.326;2023-05-07T10:21:08;12.00;99.90
59881;DHT22;45751;51.380;10.326;2023-05-07T10:23:38;12.10;99.90
59881;DHT22;45751;51.380;10.326;2023-05-07T10:26:08;12.10;99.90
59881;DHT22;45751;51.380;10.326;2023-05-07T10:28:45;12.10;99.60
59881;DHT22;45751;51.380;10.326;2023-05-07T10:34:12;12.10;99.50
59881;DHT22;45751;51.380;10.326;2023-05-07T10:36:40;12.10;99.60
59881;DHT22;45751;51.380;10.326;2023-05-07T10:39:08;12.10;99.50
59881;DHT22;45751;51.380;10.326;2023-05-07T10:41:37;12.10;99.70
59881;DHT22;45751;51.380;10.326;2023-05-07T10:44:04;12.00;99.60
59881;DHT22;45751;51.380;10.326;2023-05-07T10:46:32;12.00;99.80
59881;DHT22;45751;51.380;10.326;2023-05-07T10:49:19;12.00;99.90
59881;DHT22;45751;51.380;10.326;2023-05-07T10:52:24;12.10;99.90
59881;DHT22;45751;51.380;10.326;2023-05-07T10:58:35;12.10;99.50
59881;DHT22;45751;51.380;10.326;2023-05-07T11:04:25;12.10;99.90
59881;DHT22;45751;51.380;10.326;2023-05-07T11:15:14;12.30;98.70
59881;DHT22;45751;51.380;10.326;2023-05-07T11:17:54;12.30;98.70
59881;DHT22;45751;51.380;10.326;2023-05-07T11:20:46;12.40;98.80
59881;DHT22;45751;51.380;10.326;2023-05-07T11:26:49;12.40;98.10
59881;DHT22;45751;51.380;10.326;2023-05-07T11:29:20;12.40;98.30
59881;DHT22;45751;51.380;10.326;2023-05-07T11:31:54;12.40;97.90
59881;DHT22;45751;51.380;10.326;2023-05-07T11:34:25;12.40;97.80
59881;DHT22;45751;51.380;10.326;2023-05-07T11:36:55;12.50;97.60
59881;DHT22;45751;51.380;10.326;2023-05-07T11:39:34;12.50;97.60
59881;DHT22;45751;51.380;10.326;2023-05-07T11:42:02;12.50;97.70
59881;DHT22;45751;51.380;10.326;2023-05-07T11:44:45;12.50;97.80
59881;DHT22;45751;51.380;10.326;2023-05-07T11:47:19;12.50;97.30
59881;DHT22;45751;51.380;10.326;2023-05-07T11:49:51;12.60;97.30
59881;DHT22;45751;51.380;10.326;2023-05-07T11:52:20;12.60;97.00
59881;DHT22;45751;51.380;10.326;2023-05-07T11:57:17;12.70;96.50
59881;DHT22;45751;51.380;10.326;2023-05-07T11:59:43;12.70;96.30
59881;DHT22;45751;51.380;10.326;2023-05-07T12:02:14;12.70;96.70
59881;DHT22;45751;51.380;10.326;2023-05-07T12:04:41;12.80;96.50
59881;DHT22;45751;51.380;10.326;2023-05-07T12:07:15;12.80;96.30
59881;DHT22;45751;51.380;10.326;2023-05-07T12:09:43;13.00;96.20
59881;DHT22;45751;51.380;10.326;2023-05-07T12:12:10;13.00;96.30
59881;DHT22;45751;51.380;10.326;2023-05-07T12:14:39;13.10;95.70
59881;DHT22;45751;51.380;10.326;2023-05-07T12:17:11;13.10;95.30
59881;DHT22;45751;51.380;10.326;2023-05-07T12:19:40;13.20;95.40
59881;DHT22;45751;51.380;10.326;2023-05-07T12:22:08;13.30;94.50
59881;DHT22;45751;51.380;10.326;2023-05-07T12:24:46;13.40;94.90
59881;DHT22;45751;51.380;10.326;2023-05-07T12:27:14;13.50;94.30
59881;DHT22;45751;51.380;10.326;2023-05-07T12:29:46;13.60;93.20
59881;DHT22;45751;51.380;10.326;2023-05-07T12:32:14;13.60;92.20
59881;DHT22;45751;51.380;10.326;2023-05-07T12:34:42;13.60;92.00
59881;DHT22;45751;51.380;10.326;2023-05-07T12:37:12;13.60;92.60
59881;DHT22;45751;51.380;10.326;2023-05-07T12:39:48;13.60;92.40
59881;DHT22;45751;51.380;10.326;2023-05-07T12:42:16;13.70;91.70
59881;DHT22;45751;51.380;10.326;2023-05-07T12:44:46;13.70;92.10
59881;DHT22;45751;51.380;10.326;2023-05-07T12:47:14;13.80;91.80
59881;DHT22;45751;51.380;10.326;2023-05-07T12:49:42;13.80;91.60
59881;DHT22;45751;51.380;10.326;2023-05-07T12:52:11;13.80;91.60
59881;DHT22;45751;51.380;10.326;2023-05-07T12:54:38;13.90;91.00
59881;DHT22;45751;51.380;10.326;2023-05-07T12:57:07;13.80;90.40
59881;DHT22;45751;51.380;10.326;2023-05-07T12:59:40;13.80;90.60
59881;DHT22;45751;51.380;10.326;2023-05-07T13:02:08;13.90;90.70
59881;DHT22;45751;51.380;10.326;2023-05-07T13:04:36;14.00;90.80
59881;DHT22;45751;51.380;10.326;2023-05-07T13:07:03;14.00;90.90
59881;DHT22;45751;51.380;10.326;2023-05-07T13:09:31;14.10;91.00
59881;DHT22;45751;51.380;10.326;2023-05-07T13:11:58;14.20;89.50
59881;DHT22;45751;51.380;10.326;2023-05-07T13:14:28;14.30;90.60
59881;DHT22;45751;51.380;10.326;2023-05-07T13:16:55;14.50;90.50
59881;DHT22;45751;51.380;10.326;2023-05-07T13:19:21;14.80;88.30
59881;DHT22;45751;51.380;10.326;2023-05-07T13:21:48;15.00;87.70
59881;DHT22;45751;51.380;10.326;2023-05-07T13:24:16;15.20;85.60
59881;DHT22;45751;51.380;10.326;2023-05-07T13:26:43;15.20;84.30
59881;DHT22;45751;51.380;10.326;2023-05-07T13:29:11;15.30;82.00
59881;DHT22;45751;51.380;10.326;2023-05-07T13:31:38;15.20;82.20
59881;DHT22;45751;51.380;10.326;2023-05-07T13:34:09;15.30;83.10
59881;DHT22;45751;51.380;10.326;2023-05-07T13:36:36;15.50;83.60
59881;DHT22;45751;51.380;10.326;2023-05-07T13:39:06;15.60;80.40
59881;DHT22;45751;51.380;10.326;2023-05-07T13:41:33;15.80;79.40
59881;DHT22;45751;51.380;10.326;2023-05-07T13:44:00;16.00;79.20
59881;DHT22;45751;51.380;10.326;2023-05-07T13:46:27;16.20;78.70
59881;DHT22;45751;51.380;10.326;2023-05-07T13:48:54;16.40;76.30
59881;DHT22;45751;51.380;10.326;2023-05-07T13:51:21;16.60;76.80
59881;DHT22;45751;51.380;10.326;2023-05-07T13:53:48;16.80;74.00
59881;DHT22;45751;51.380;10.326;2023-05-07T13:56:15;16.90;72.50
59881;DHT22;45751;51.380;10.326;2023-05-07T13:58:42;16.90;72.80
59881;DHT22;45751;51.380;10.326;2023-05-07T14:01:25;17.10;72.00
59881;DHT22;45751;51.380;10.326;2023-05-07T14:03:51;17.30;70.90
59881;DHT22;45751;51.380;10.326;2023-05-07T14:06:18;17.50;70.00
59881;DHT22;45751;51.380;10.326;2023-05-07T14:08:46;17.60;67.80
59881;DHT22;45751;51.380;10.326;2023-05-07T14:11:13;17.80;66.70
59881;DHT22;45751;51.380;10.326;2023-05-07T14:13:40;17.80;66.90
59881;DHT22;45751;51.380;10.326;2023-05-07T14:16:06;17.90;66.20
59881;DHT22;45751;51.380;10.326;2023-05-07T14:18:33;18.10;65.80
59881;DHT22;45751;51.380;10.326;2023-05-07T14:21:01;18.20;64.80
59881;DHT22;45751;51.380;10.326;2023-05-07T14:23:28;18.40;64.50
59881;DHT22;45751;51.380;10.326;2023-05-07T14:25:56;18.50;63.50
59881;DHT22;45751;51.380;10.326;2023-05-07T14:28:23;18.70;62.30
59881;DHT22;45751;51.380;10.326;2023-05-07T14:30:51;18.80;60.70
59881;DHT22;45751;51.380;10.326;2023-05-07T14:33:17;18.80;60.50
59881;DHT22;45751;51.380;10.326;2023-05-07T14:35:44;19.00;59.80
59881;DHT22;45751;51.380;10.326;2023-05-07T14:38:15;19.10;59.90
59881;DHT22;45751;51.380;10.326;2023-05-07T14:40:42;19.20;59.50
59881;DHT22;45751;51.380;10.326;2023-05-07T14:43:09;19.30;59.30
59881;DHT22;45751;51.380;10.326;2023-05-07T14:45:36;19.50;58.30
59881;DHT22;45751;51.380;10.326;2023-05-07T14:48:03;19.70;57.20
59881;DHT22;45751;51.380;10.326;2023-05-07T14:50:30;19.80;56.20
59881;DHT22;45751;51.380;10.326;2023-05-07T14:52:57;19.90;55.80
59881;DHT22;45751;51.380;10.326;2023-05-07T14:55:24;20.10;55.40
59881;DHT22;45751;51.380;10.326;2023-05-07T14:57:51;20.10;55.00
59881;DHT22;45751;51.380;10.326;2023-05-07T15:00:18;20.10;54.30
59881;DHT22;45751;51.380;10.326;2023-05-07T15:02:45;20.10;54.50
59881;DHT22;45751;51.380;10.326;2023-05-07T15:05:12;20.20;53.70
59881;DHT22;45751;51.380;10.326;2023-05-07T15:07:41;20.20;53.10
59881;DHT22;45751;51.380;10.326;2023-05-07T15:10:08;20.20;53.30
59881;DHT22;45751;51.380;10.326;2023-05-07T15:12:35;20.20;52.70
59881;DHT22;45751;51.380;10.326;2023-05-07T15:15:02;20.20;52.90
59881;DHT22;45751;51.380;10.326;2023-05-07T15:17:29;20.20;53.40
59881;DHT22;45751;51.380;10.326;2023-05-07T15:19:56;20.30;53.20
59881;DHT22;45751;51.380;10.326;2023-05-07T15:22:23;20.40;52.20
59881;DHT22;45751;51.380;10.326;2023-05-07T15:24:49;20.40;52.10
59881;DHT22;45751;51.380;10.326;2023-05-07T15:27:16;20.50;52.20
59881;DHT22;45751;51.380;10.326;2023-05-07T15:29:43;20.70;51.70
59881;DHT22;45751;51.380;10.326;2023-05-07T15:32:11;20.70;51.50
59881;DHT22;45751;51.380;10.326;2023-05-07T15:34:38;20.80;51.30
59881;DHT22;45751;51.380;10.326;2023-05-07T15:37:05;20.80;51.10
59881;DHT22;45751;51.380;10.326;2023-05-07T15:39:32;20.80;51.10
59881;DHT22;45751;51.380;10.326;2023-05-07T15:41:58;20.80;50.70
59881;DHT22;45751;51.380;10.326;2023-05-07T15:44:25;20.90;50.00
59881;DHT22;45751;51.380;10.326;2023-05-07T15:46:55;21.00;49.70
59881;DHT22;45751;51.380;10.326;2023-05-07T15:49:22;21.00;50.10